sensor_id;sensor_type;location;lat;lon;timestamp;P1;durP1;ratioP1;P2;durP2;ratioP2
19867;SDS011;10096;51.112;6.776;2023-04-24T00:00:45;2.33;;;1.77;;
19867;SDS011;10096;51.112;6.776;2023-04-24T00:03:12;1.85;;;1.75;;
19867;SDS011;10096;51.112;6.776;2023-04-24T00:05:39;1.88;;;1.77;;
19867;SDS011;10096;51.112;6.776;2023-04-24T00:08:06;2.45;;;1.80;;
19867;SDS011;10096;51.112;6.776;2023-04-24T00:10:33;2.15;;;1.95;;
19867;SDS011;10096;51.112;6.776;2023-04-24T00:13:00;3.75;;;1.83;;
19867;SDS011;10096;51.112;6.776;2023-04-24T00:15:28;1.92;;;1.77;;
19867;SDS011;10096;51.112;6.776;2023-04-24T00:17:56;2.63;;;1.85;;
19867;SDS011;10096;51.112;6.776;2023-04-24T00:20:23;2.53;;;2.00;;
19867;SDS011;10096;51.112;6.776;2023-04-24T00:22:50;2.17;;;1.98;;
19867;SDS011;10096;51.112;6.776;2023-04-24T00:25:17;3.25;;;1.95;;
19867;SDS011;10096;51.112;6.776;2023-04-24T00:27:45;3.30;;;2.03;;
19867;SDS011;10096;51.112;6.776;2023-04-24T00:30:12;2.22;;;2.03;;
19867;SDS011;10096;51.112;6.776;2023-04-24T00:32:41;2.60;;;2.13;;
19867;SDS011;10096;51.112;6.776;2023-04-24T00:35:08;2.38;;;2.13;;
19867;SDS011;10096;51.112;6.776;2023-04-24T00:37:35;3.17;;;2.33;;
19867;SDS011;10096;51.112;6.776;2023-04-24T00:40:02;2.22;;;2.03;;
19867;SDS011;10096;51.112;6.776;2023-04-24T00:42:31;2.22;;;2.00;;
19867;SDS011;10096;51.112;6.776;2023-04-24T00:44:58;2.28;;;2.08;;
19867;SDS011;10096;51.112;6.776;2023-04-24T00:47:25;2.03;;;1.92;;
19867;SDS011;10096;51.112;6.776;2023-04-24T00:49:55;4.53;;;2.40;;
19867;SDS011;10096;51.112;6.776;2023-04-24T00:52:23;2.95;;;2.17;;
19867;SDS011;10096;51.112;6.776;2023-04-24T00:54:50;2.42;;;2.17;;
19867;SDS011;10096;51.112;6.776;2023-04-24T00:57:17;2.53;;;2.15;;
19867;SDS011;10096;51.112;6.776;2023-04-24T00:59:44;2.42;;;2.22;;
19867;SDS011;10096;51.112;6.776;2023-04-24T01:02:12;2.70;;;2.20;;
19867;SDS011;10096;51.112;6.776;2023-04-24T01:04:40;2.58;;;2.35;;
19867;SDS011;10096;51.112;6.776;2023-04-24T01:07:09;2.97;;;2.25;;
19867;SDS011;10096;51.112;6.776;2023-04-24T01:09:36;2.30;;;2.10;;
19867;SDS011;10096;51.112;6.776;2023-04-24T01:12:05;3.90;;;2.53;;
19867;SDS011;10096;51.112;6.776;2023-04-24T01:14:33;4.10;;;3.17;;
19867;SDS011;10096;51.112;6.776;2023-04-24T01:17:00;4.85;;;3.15;;
19867;SDS011;10096;51.112;6.776;2023-04-24T01:19:27;4.00;;;3.60;;
19867;SDS011;10096;51.112;6.776;2023-04-24T01:21:54;4.82;;;4.32;;
19867;SDS011;10096;51.112;6.776;2023-04-24T01:24:26;4.60;;;4.20;;
19867;SDS011;10096;51.112;6.776;2023-04-24T01:26:53;5.15;;;4.57;;
19867;SDS011;10096;51.112;6.776;2023-04-24T01:29:20;8.57;;;4.93;;
19867;SDS011;10096;51.112;6.776;2023-04-24T01:31:47;7.43;;;5.10;;
19867;SDS011;10096;51.112;6.776;2023-04-24T01:34:15;5.88;;;5.28;;
19867;SDS011;10096;51.112;6.776;2023-04-24T01:36:42;6.15;;;4.60;;
19867;SDS011;10096;51.112;6.776;2023-04-24T01:39:11;6.40;;;4.85;;
19867;SDS011;10096;51.112;6.776;2023-04-24T01:41:40;7.40;;;5.30;;
19867;SDS011;10096;51.112;6.776;2023-04-24T01:44:07;6.15;;;5.30;;
19867;SDS011;10096;51.112;6.776;2023-04-24T01:46:34;6.68;;;5.50;;
19867;SDS011;10096;51.112;6.776;2023-04-24T01:49:01;6.88;;;5.57;;
19867;SDS011;10096;51.112;6.776;2023-04-24T01:51:29;6.25;;;5.65;;
19867;SDS011;10096;51.112;6.776;2023-04-24T01:53:56;6.43;;;5.82;;
19867;SDS011;10096;51.112;6.776;2023-04-24T01:56:23;6.70;;;6.03;;
19867;SDS011;10096;51.112;6.776;2023-04-24T01:58:53;8.00;;;5.80;;
19867;SDS011;10096;51.112;6.776;2023-04-24T02:01:22;7.25;;;6.43;;
19867;SDS011;10096;51.112;6.776;2023-04-24T02:03:52;7.65;;;6.57;;
19867;SDS011;10096;51.112;6.776;2023-04-24T02:06:19;7.97;;;6.82;;
19867;SDS011;10096;51.112;6.776;2023-04-24T02:08:47;9.10;;;7.17;;
19867;SDS011;10096;51.112;6.776;2023-04-24T02:11:14;7.75;;;6.95;;
19867;SDS011;10096;51.112;6.776;2023-04-24T02:13:41;9.03;;;7.97;;
19867;SDS011;10096;51.112;6.776;2023-04-24T02:16:09;8.55;;;7.38;;
19867;SDS011;10096;51.112;6.776;2023-04-24T02:18:37;8.82;;;7.88;;
19867;SDS011;10096;51.112;6.776;2023-04-24T02:21:03;9.05;;;7.38;;
19867;SDS011;10096;51.112;6.776;2023-04-24T02:23:30;9.18;;;7.47;;
19867;SDS011;10096;51.112;6.776;2023-04-24T02:25:57;9.38;;;7.75;;
19867;SDS011;10096;51.112;6.776;2023-04-24T02:28:24;9.52;;;7.78;;
19867;SDS011;10096;51.112;6.776;2023-04-24T02:30:52;11.55;;;8.48;;
19867;SDS011;10096;51.112;6.776;2023-04-24T02:33:20;11.82;;;8.98;;
19867;SDS011;10096;51.112;6.776;2023-04-24T02:35:47;12.30;;;8.45;;
19867;SDS011;10096;51.112;6.776;2023-04-24T02:38:15;9.45;;;8.13;;
19867;SDS011;10096;51.112;6.776;2023-04-24T02:40:42;12.02;;;7.93;;
19867;SDS011;10096;51.112;6.776;2023-04-24T02:43:09;10.02;;;7.72;;
19867;SDS011;10096;51.112;6.776;2023-04-24T02:45:36;11.20;;;9.75;;
19867;SDS011;10096;51.112;6.776;2023-04-24T02:48:03;10.40;;;8.52;;
19867;SDS011;10096;51.112;6.776;2023-04-24T02:50:32;9.35;;;8.43;;
19867;SDS011;10096;51.112;6.776;2023-04-24T02:52:59;10.50;;;8.15;;
19867;SDS011;10096;51.112;6.776;2023-04-24T02:55:26;10.75;;;8.73;;
19867;SDS011;10096;51.112;6.776;2023-04-24T02:57:53;10.07;;;8.15;;
19867;SDS011;10096;51.112;6.776;2023-04-24T03:00:20;11.45;;;8.95;;
19867;SDS011;10096;51.112;6.776;2023-04-24T03:02:47;11.27;;;8.23;;
19867;SDS011;10096;51.112;6.776;2023-04-24T03:05:15;11.60;;;8.55;;
19867;SDS011;10096;51.112;6.776;2023-04-24T03:07:44;10.13;;;8.18;;
19867;SDS011;10096;51.112;6.776;2023-04-24T03:10:11;11.10;;;8.50;;
19867;SDS011;10096;51.112;6.776;2023-04-24T03:12:38;12.10;;;9.13;;
19867;SDS011;10096;51.112;6.776;2023-04-24T03:15:05;11.18;;;8.63;;
19867;SDS011;10096;51.112;6.776;2023-04-24T03:17:33;9.48;;;8.43;;
19867;SDS011;10096;51.112;6.776;2023-04-24T03:20:02;10.57;;;8.40;;
19867;SDS011;10096;51.112;6.776;2023-04-24T03:22:30;12.23;;;8.68;;
19867;SDS011;10096;51.112;6.776;2023-04-24T03:24:59;10.27;;;8.43;;
19867;SDS011;10096;51.112;6.776;2023-04-24T03:27:26;9.35;;;8.43;;
19867;SDS011;10096;51.112;6.776;2023-04-24T03:29:53;11.48;;;8.18;;
19867;SDS011;10096;51.112;6.776;2023-04-24T03:32:20;9.48;;;8.45;;
19867;SDS011;10096;51.112;6.776;2023-04-24T03:34:47;10.00;;;9.00;;
19867;SDS011;10096;51.112;6.776;2023-04-24T03:37:15;9.85;;;8.02;;
19867;SDS011;10096;51.112;6.776;2023-04-24T03:39:42;12.48;;;8.45;;
19867;SDS011;10096;51.112;6.776;2023-04-24T03:42:10;9.32;;;8.07;;
19867;SDS011;10096;51.112;6.776;2023-04-24T03:44:37;9.95;;;8.50;;
19867;SDS011;10096;51.112;6.776;2023-04-24T03:47:04;10.15;;;8.63;;
19867;SDS011;10096;51.112;6.776;2023-04-24T03:49:31;10.95;;;8.10;;
19867;SDS011;10096;51.112;6.776;2023-04-24T03:51:58;11.43;;;8.80;;
19867;SDS011;10096;51.112;6.776;2023-04-24T03:54:27;9.52;;;8.43;;
19867;SDS011;10096;51.112;6.776;2023-04-24T03:56:54;9.90;;;8.50;;
19867;SDS011;10096;51.112;6.776;2023-04-24T03:59:23;10.65;;;8.32;;
19867;SDS011;10096;51.112;6.776;2023-04-24T04:01:50;11.13;;;8.45;;
19867;SDS011;10096;51.112;6.776;2023-04-24T04:04:17;11.00;;;8.68;;
19867;SDS011;10096;51.112;6.776;2023-04-24T04:06:44;11.85;;;8.80;;
19867;SDS011;10096;51.112;6.776;2023-04-24T04:09:14;10.30;;;8.70;;
19867;SDS011;10096;51.112;6.776;2023-04-24T04:11:41;10.20;;;9.18;;
19867;SDS011;10096;51.112;6.776;2023-04-24T04:14:08;10.32;;;9.02;;
19867;SDS011;10096;51.112;6.776;2023-04-24T04:16:36;11.30;;;8.98;;
19867;SDS011;10096;51.112;6.776;2023-04-24T04:19:03;11.35;;;8.93;;
19867;SDS011;10096;51.112;6.776;2023-04-24T04:21:30;12.95;;;9.43;;
19867;SDS011;10096;51.112;6.776;2023-04-24T04:23:57;11.32;;;8.95;;
19867;SDS011;10096;51.112;6.776;2023-04-24T04:26:24;10.75;;;9.57;;
19867;SDS011;10096;51.112;6.776;2023-04-24T04:28:52;9.10;;;8.23;;
19867;SDS011;10096;51.112;6.776;2023-04-24T04:31:20;10.48;;;8.77;;
19867;SDS011;10096;51.112;6.776;2023-04-24T04:33:49;10.50;;;8.65;;
19867;SDS011;10096;51.112;6.776;2023-04-24T04:36:16;11.13;;;8.77;;
19867;SDS011;10096;51.112;6.776;2023-04-24T04:38:43;9.98;;;8.15;;
19867;SDS011;10096;51.112;6.776;2023-04-24T04:41:10;10.18;;;8.35;;
19867;SDS011;10096;51.112;6.776;2023-04-24T04:43:37;9.27;;;7.78;;
19867;SDS011;10096;51.112;6.776;2023-04-24T04:46:05;10.77;;;7.72;;
19867;SDS011;10096;51.112;6.776;2023-04-24T04:48:33;9.02;;;7.68;;
19867;SDS011;10096;51.112;6.776;2023-04-24T04:51:02;10.60;;;8.32;;
19867;SDS011;10096;51.112;6.776;2023-04-24T04:53:29;8.35;;;7.45;;
19867;SDS011;10096;51.112;6.776;2023-04-24T04:55:55;9.13;;;7.90;;
19867;SDS011;10096;51.112;6.776;2023-04-24T04:58:23;9.70;;;7.53;;
19867;SDS011;10096;51.112;6.776;2023-04-24T05:00:50;11.15;;;7.93;;
19867;SDS011;10096;51.112;6.776;2023-04-24T05:03:17;7.43;;;6.65;;
19867;SDS011;10096;51.112;6.776;2023-04-24T05:05:44;9.75;;;8.15;;
19867;SDS011;10096;51.112;6.776;2023-04-24T05:08:12;9.18;;;7.10;;
19867;SDS011;10096;51.112;6.776;2023-04-24T05:10:39;7.55;;;6.72;;
19867;SDS011;10096;51.112;6.776;2023-04-24T05:13:06;8.02;;;6.53;;
19867;SDS011;10096;51.112;6.776;2023-04-24T05:15:34;10.13;;;8.10;;
19867;SDS011;10096;51.112;6.776;2023-04-24T05:18:01;7.70;;;6.95;;
19867;SDS011;10096;51.112;6.776;2023-04-24T05:20:28;9.82;;;7.28;;
19867;SDS011;10096;51.112;6.776;2023-04-24T05:23:00;8.45;;;7.53;;
19867;SDS011;10096;51.112;6.776;2023-04-24T05:25:29;9.32;;;7.50;;
19867;SDS011;10096;51.112;6.776;2023-04-24T05:28:00;10.88;;;8.30;;
19867;SDS011;10096;51.112;6.776;2023-04-24T05:30:27;10.55;;;8.05;;
19867;SDS011;10096;51.112;6.776;2023-04-24T05:32:54;8.23;;;7.35;;
19867;SDS011;10096;51.112;6.776;2023-04-24T05:35:21;11.32;;;7.82;;
19867;SDS011;10096;51.112;6.776;2023-04-24T05:37:48;11.82;;;8.60;;
19867;SDS011;10096;51.112;6.776;2023-04-24T05:40:15;9.18;;;8.23;;
19867;SDS011;10096;51.112;6.776;2023-04-24T05:42:46;9.93;;;8.77;;
19867;SDS011;10096;51.112;6.776;2023-04-24T05:45:13;10.57;;;8.23;;
19867;SDS011;10096;51.112;6.776;2023-04-24T05:47:41;9.35;;;8.45;;
19867;SDS011;10096;51.112;6.776;2023-04-24T05:50:09;10.40;;;9.38;;
19867;SDS011;10096;51.112;6.776;2023-04-24T05:52:36;13.55;;;10.15;;
19867;SDS011;10096;51.112;6.776;2023-04-24T05:55:05;9.90;;;8.45;;
19867;SDS011;10096;51.112;6.776;2023-04-24T05:57:32;9.15;;;7.85;;
19867;SDS011;10096;51.112;6.776;2023-04-24T06:00:01;9.27;;;7.93;;
19867;SDS011;10096;51.112;6.776;2023-04-24T06:02:29;8.93;;;7.80;;
19867;SDS011;10096;51.112;6.776;2023-04-24T06:04:57;8.70;;;7.70;;
19867;SDS011;10096;51.112;6.776;2023-04-24T06:07:25;9.27;;;8.30;;
19867;SDS011;10096;51.112;6.776;2023-04-24T06:09:52;8.43;;;7.47;;
19867;SDS011;10096;51.112;6.776;2023-04-24T06:12:19;7.93;;;7.13;;
19867;SDS011;10096;51.112;6.776;2023-04-24T06:14:46;7.78;;;6.32;;
19867;SDS011;10096;51.112;6.776;2023-04-24T06:17:15;10.18;;;6.43;;
19867;SDS011;10096;51.112;6.776;2023-04-24T06:19:42;7.15;;;6.45;;
19867;SDS011;10096;51.112;6.776;2023-04-24T06:22:10;7.65;;;5.40;;
19867;SDS011;10096;51.112;6.776;2023-04-24T06:24:40;7.00;;;6.07;;
19867;SDS011;10096;51.112;6.776;2023-04-24T06:27:10;7.32;;;5.78;;
19867;SDS011;10096;51.112;6.776;2023-04-24T06:29:37;6.55;;;5.95;;
19867;SDS011;10096;51.112;6.776;2023-04-24T06:32:04;6.13;;;5.15;;
19867;SDS011;10096;51.112;6.776;2023-04-24T06:34:34;7.10;;;5.25;;
19867;SDS011;10096;51.112;6.776;2023-04-24T06:37:09;6.03;;;4.88;;
19867;SDS011;10096;51.112;6.776;2023-04-24T06:39:36;6.07;;;5.35;;
19867;SDS011;10096;51.112;6.776;2023-04-24T06:42:03;6.07;;;4.93;;
19867;SDS011;10096;51.112;6.776;2023-04-24T06:44:30;5.25;;;4.75;;
19867;SDS011;10096;51.112;6.776;2023-04-24T06:47:05;5.97;;;5.00;;
19867;SDS011;10096;51.112;6.776;2023-04-24T06:49:34;6.10;;;5.25;;
19867;SDS011;10096;51.112;6.776;2023-04-24T06:52:01;4.68;;;4.20;;
19867;SDS011;10096;51.112;6.776;2023-04-24T06:54:28;6.43;;;4.60;;
19867;SDS011;10096;51.112;6.776;2023-04-24T06:56:55;4.97;;;4.47;;
19867;SDS011;10096;51.112;6.776;2023-04-24T06:59:22;5.80;;;4.82;;
19867;SDS011;10096;51.112;6.776;2023-04-24T07:01:49;4.63;;;4.03;;
19867;SDS011;10096;51.112;6.776;2023-04-24T07:04:17;5.03;;;4.53;;
19867;SDS011;10096;51.112;6.776;2023-04-24T07:06:46;4.53;;;4.03;;
19867;SDS011;10096;51.112;6.776;2023-04-24T07:09:14;3.92;;;3.63;;
19867;SDS011;10096;51.112;6.776;2023-04-24T07:11:43;3.42;;;3.13;;
19867;SDS011;10096;51.112;6.776;2023-04-24T07:14:10;3.97;;;2.90;;
19867;SDS011;10096;51.112;6.776;2023-04-24T07:16:38;3.28;;;2.97;;
19867;SDS011;10096;51.112;6.776;2023-04-24T07:19:05;2.57;;;2.37;;
19867;SDS011;10096;51.112;6.776;2023-04-24T07:21:32;3.40;;;3.17;;
19867;SDS011;10096;51.112;6.776;2023-04-24T07:24:02;2.55;;;2.35;;
19867;SDS011;10096;51.112;6.776;2023-04-24T07:26:29;2.28;;;2.08;;
19867;SDS011;10096;51.112;6.776;2023-04-24T07:28:57;3.53;;;2.47;;
19867;SDS011;10096;51.112;6.776;2023-04-24T07:31:24;3.58;;;3.28;;
19867;SDS011;10096;51.112;6.776;2023-04-24T07:33:51;3.53;;;3.10;;
19867;SDS011;10096;51.112;6.776;2023-04-24T07:36:18;3.53;;;2.53;;
19867;SDS011;10096;51.112;6.776;2023-04-24T07:38:46;4.13;;;2.80;;
19867;SDS011;10096;51.112;6.776;2023-04-24T07:41:15;5.07;;;2.92;;
19867;SDS011;10096;51.112;6.776;2023-04-24T07:43:42;2.65;;;2.45;;
19867;SDS011;10096;51.112;6.776;2023-04-24T07:46:10;1.50;;;1.40;;
19867;SDS011;10096;51.112;6.776;2023-04-24T07:48:37;2.08;;;1.98;;
19867;SDS011;10096;51.112;6.776;2023-04-24T07:51:04;1.50;;;1.40;;
19867;SDS011;10096;51.112;6.776;2023-04-24T07:53:31;2.30;;;1.40;;
19867;SDS011;10096;51.112;6.776;2023-04-24T07:55:59;1.50;;;1.40;;
19867;SDS011;10096;51.112;6.776;2023-04-24T07:58:27;1.58;;;1.38;;
19867;SDS011;10096;51.112;6.776;2023-04-24T08:00:54;1.50;;;1.40;;
19867;SDS011;10096;51.112;6.776;2023-04-24T08:03:21;1.70;;;1.60;;
19867;SDS011;10096;51.112;6.776;2023-04-24T08:05:49;2.53;;;1.90;;
19867;SDS011;10096;51.112;6.776;2023-04-24T08:08:17;2.40;;;2.20;;
19867;SDS011;10096;51.112;6.776;2023-04-24T08:10:46;2.10;;;2.00;;
19867;SDS011;10096;51.112;6.776;2023-04-24T08:13:13;1.83;;;1.67;;
19867;SDS011;10096;51.112;6.776;2023-04-24T08:15:41;2.72;;;2.35;;
19867;SDS011;10096;51.112;6.776;2023-04-24T08:18:09;3.00;;;2.42;;
19867;SDS011;10096;51.112;6.776;2023-04-24T08:20:37;3.80;;;2.97;;
19867;SDS011;10096;51.112;6.776;2023-04-24T08:23:04;3.22;;;2.88;;
19867;SDS011;10096;51.112;6.776;2023-04-24T08:25:31;4.93;;;3.50;;
19867;SDS011;10096;51.112;6.776;2023-04-24T08:28:00;5.70;;;4.40;;
19867;SDS011;10096;51.112;6.776;2023-04-24T08:30:28;4.23;;;3.83;;
19867;SDS011;10096;51.112;6.776;2023-04-24T08:32:56;3.83;;;3.40;;
19867;SDS011;10096;51.112;6.776;2023-04-24T08:35:24;4.47;;;3.87;;
19867;SDS011;10096;51.112;6.776;2023-04-24T08:37:51;4.20;;;3.83;;
19867;SDS011;10096;51.112;6.776;2023-04-24T08:40:20;4.15;;;3.80;;
19867;SDS011;10096;51.112;6.776;2023-04-24T08:42:53;5.93;;;5.32;;
19867;SDS011;10096;51.112;6.776;2023-04-24T08:45:21;5.63;;;3.90;;
19867;SDS011;10096;51.112;6.776;2023-04-24T08:47:49;4.95;;;4.47;;
19867;SDS011;10096;51.112;6.776;2023-04-24T08:50:18;5.30;;;4.25;;
19867;SDS011;10096;51.112;6.776;2023-04-24T08:52:45;3.88;;;3.47;;
19867;SDS011;10096;51.112;6.776;2023-04-24T08:55:13;5.30;;;4.80;;
19867;SDS011;10096;51.112;6.776;2023-04-24T08:57:42;6.63;;;5.40;;
19867;SDS011;10096;51.112;6.776;2023-04-24T09:00:10;6.05;;;4.75;;
19867;SDS011;10096;51.112;6.776;2023-04-24T09:02:39;6.50;;;5.77;;
19867;SDS011;10096;51.112;6.776;2023-04-24T09:05:10;8.25;;;4.70;;
19867;SDS011;10096;51.112;6.776;2023-04-24T09:07:39;5.25;;;4.75;;
19867;SDS011;10096;51.112;6.776;2023-04-24T09:10:11;6.20;;;5.32;;
19867;SDS011;10096;51.112;6.776;2023-04-24T09:12:38;5.78;;;5.10;;
19867;SDS011;10096;51.112;6.776;2023-04-24T09:15:07;6.30;;;5.20;;
19867;SDS011;10096;51.112;6.776;2023-04-24T09:17:35;6.95;;;6.25;;
19867;SDS011;10096;51.112;6.776;2023-04-24T09:20:03;5.40;;;4.90;;
19867;SDS011;10096;51.112;6.776;2023-04-24T09:22:32;6.53;;;5.40;;
19867;SDS011;10096;51.112;6.776;2023-04-24T09:25:05;6.97;;;5.40;;
19867;SDS011;10096;51.112;6.776;2023-04-24T09:27:34;8.95;;;6.70;;
19867;SDS011;10096;51.112;6.776;2023-04-24T09:30:01;6.80;;;6.07;;
19867;SDS011;10096;51.112;6.776;2023-04-24T09:32:29;7.78;;;5.32;;
19867;SDS011;10096;51.112;6.776;2023-04-24T09:35:10;6.72;;;6.05;;
19867;SDS011;10096;51.112;6.776;2023-04-24T09:37:40;9.00;;;5.85;;
19867;SDS011;10096;51.112;6.776;2023-04-24T09:40:11;12.80;;;6.78;;
19867;SDS011;10096;51.112;6.776;2023-04-24T09:42:40;10.30;;;6.53;;
19867;SDS011;10096;51.112;6.776;2023-04-24T09:45:10;6.97;;;5.78;;
19867;SDS011;10096;51.112;6.776;2023-04-24T09:47:38;11.43;;;7.93;;
19867;SDS011;10096;51.112;6.776;2023-04-24T09:50:09;12.18;;;8.90;;
19867;SDS011;10096;51.112;6.776;2023-04-24T09:52:41;8.90;;;7.00;;
19867;SDS011;10096;51.112;6.776;2023-04-24T09:55:14;9.00;;;7.85;;
19867;SDS011;10096;51.112;6.776;2023-04-24T09:57:47;10.30;;;7.90;;
19867;SDS011;10096;51.112;6.776;2023-04-24T10:00:17;10.32;;;8.18;;
19867;SDS011;10096;51.112;6.776;2023-04-24T10:02:49;9.77;;;7.75;;
19867;SDS011;10096;51.112;6.776;2023-04-24T10:05:18;9.57;;;7.45;;
19867;SDS011;10096;51.112;6.776;2023-04-24T10:07:45;12.70;;;8.48;;
19867;SDS011;10096;51.112;6.776;2023-04-24T10:10:14;10.52;;;7.55;;
19867;SDS011;10096;51.112;6.776;2023-04-24T10:12:41;10.02;;;6.80;;
19867;SDS011;10096;51.112;6.776;2023-04-24T10:15:10;12.02;;;7.28;;
19867;SDS011;10096;51.112;6.776;2023-04-24T10:17:39;10.50;;;6.68;;
19867;SDS011;10096;51.112;6.776;2023-04-24T10:20:26;8.25;;;6.38;;
19867;SDS011;10096;51.112;6.776;2023-04-24T10:23:28;10.27;;;7.07;;
19867;SDS011;10096;51.112;6.776;2023-04-24T10:25:58;10.52;;;8.18;;
19867;SDS011;10096;51.112;6.776;2023-04-24T10:28:26;7.82;;;5.72;;
19867;SDS011;10096;51.112;6.776;2023-04-24T10:30:55;9.15;;;6.32;;
19867;SDS011;10096;51.112;6.776;2023-04-24T10:33:26;6.35;;;5.38;;
19867;SDS011;10096;51.112;6.776;2023-04-24T10:35:53;8.20;;;6.70;;
19867;SDS011;10096;51.112;6.776;2023-04-24T10:38:24;7.65;;;6.47;;
19867;SDS011;10096;51.112;6.776;2023-04-24T10:41:00;9.75;;;5.95;;
19867;SDS011;10096;51.112;6.776;2023-04-24T10:43:44;8.90;;;6.72;;
19867;SDS011;10096;51.112;6.776;2023-04-24T10:46:16;9.27;;;7.45;;
19867;SDS011;10096;51.112;6.776;2023-04-24T10:48:52;8.63;;;5.93;;
19867;SDS011;10096;51.112;6.776;2023-04-24T10:51:21;7.35;;;6.00;;
19867;SDS011;10096;51.112;6.776;2023-04-24T10:53:49;9.07;;;5.30;;
19867;SDS011;10096;51.112;6.776;2023-04-24T10:56:21;8.65;;;5.13;;
19867;SDS011;10096;51.112;6.776;2023-04-24T10:58:49;6.47;;;5.13;;
19867;SDS011;10096;51.112;6.776;2023-04-24T11:01:27;6.82;;;5.75;;
19867;SDS011;10096;51.112;6.776;2023-04-24T11:04:00;13.02;;;6.00;;
19867;SDS011;10096;51.112;6.776;2023-04-24T11:06:36;8.32;;;4.93;;
19867;SDS011;10096;51.112;6.776;2023-04-24T11:09:08;9.15;;;5.10;;
19867;SDS011;10096;51.112;6.776;2023-04-24T11:11:45;9.63;;;5.55;;
19867;SDS011;10096;51.112;6.776;2023-04-24T11:14:13;7.82;;;5.78;;
19867;SDS011;10096;51.112;6.776;2023-04-24T11:16:44;9.75;;;4.90;;
19867;SDS011;10096;51.112;6.776;2023-04-24T11:19:18;6.63;;;5.40;;
19867;SDS011;10096;51.112;6.776;2023-04-24T11:22:02;7.75;;;4.60;;
19867;SDS011;10096;51.112;6.776;2023-04-24T11:24:32;6.43;;;4.55;;
19867;SDS011;10096;51.112;6.776;2023-04-24T11:27:11;8.43;;;5.25;;
19867;SDS011;10096;51.112;6.776;2023-04-24T11:29:42;7.78;;;5.10;;
19867;SDS011;10096;51.112;6.776;2023-04-24T11:32:14;7.95;;;5.35;;
19867;SDS011;10096;51.112;6.776;2023-04-24T11:34:45;8.02;;;4.80;;
19867;SDS011;10096;51.112;6.776;2023-04-24T11:37:13;10.20;;;5.60;;
19867;SDS011;10096;51.112;6.776;2023-04-24T11:39:40;10.63;;;5.65;;
19867;SDS011;10096;51.112;6.776;2023-04-24T11:42:09;7.25;;;4.90;;
19867;SDS011;10096;51.112;6.776;2023-04-24T11:44:36;8.23;;;5.32;;
19867;SDS011;10096;51.112;6.776;2023-04-24T11:47:04;8.70;;;6.20;;
19867;SDS011;10096;51.112;6.776;2023-04-24T11:49:32;8.30;;;5.60;;
19867;SDS011;10096;51.112;6.776;2023-04-24T11:51:59;8.43;;;5.10;;
19867;SDS011;10096;51.112;6.776;2023-04-24T11:54:26;6.05;;;4.20;;
19867;SDS011;10096;51.112;6.776;2023-04-24T11:56:54;6.90;;;4.38;;
19867;SDS011;10096;51.112;6.776;2023-04-24T11:59:23;10.05;;;4.43;;
19867;SDS011;10096;51.112;6.776;2023-04-24T12:01:50;7.53;;;4.25;;
19867;SDS011;10096;51.112;6.776;2023-04-24T12:04:17;9.30;;;4.47;;
19867;SDS011;10096;51.112;6.776;2023-04-24T12:07:00;6.93;;;4.13;;
19867;SDS011;10096;51.112;6.776;2023-04-24T12:09:27;6.50;;;3.88;;
19867;SDS011;10096;51.112;6.776;2023-04-24T12:11:54;10.48;;;5.93;;
19867;SDS011;10096;51.112;6.776;2023-04-24T12:14:30;7.82;;;3.88;;
19867;SDS011;10096;51.112;6.776;2023-04-24T12:16:57;7.63;;;4.15;;
19867;SDS011;10096;51.112;6.776;2023-04-24T12:19:24;7.85;;;4.78;;
19867;SDS011;10096;51.112;6.776;2023-04-24T12:22:00;11.10;;;5.35;;
19867;SDS011;10096;51.112;6.776;2023-04-24T12:24:28;6.78;;;4.53;;
19867;SDS011;10096;51.112;6.776;2023-04-24T12:26:56;11.43;;;8.13;;
19867;SDS011;10096;51.112;6.776;2023-04-24T12:29:26;5.18;;;4.10;;
19867;SDS011;10096;51.112;6.776;2023-04-24T12:32:17;5.90;;;4.20;;
19867;SDS011;10096;51.112;6.776;2023-04-24T12:35:34;6.13;;;4.43;;
19867;SDS011;10096;51.112;6.776;2023-04-24T12:38:12;7.10;;;4.63;;
19867;SDS011;10096;51.112;6.776;2023-04-24T12:41:01;7.13;;;4.28;;
19867;SDS011;10096;51.112;6.776;2023-04-24T12:43:58;6.65;;;4.30;;
19867;SDS011;10096;51.112;6.776;2023-04-24T12:46:29;5.72;;;3.97;;
19867;SDS011;10096;51.112;6.776;2023-04-24T12:48:58;6.72;;;4.30;;
19867;SDS011;10096;51.112;6.776;2023-04-24T12:51:25;5.13;;;4.07;;
19867;SDS011;10096;51.112;6.776;2023-04-24T12:53:53;5.57;;;3.97;;
19867;SDS011;10096;51.112;6.776;2023-04-24T12:56:20;7.07;;;4.15;;
19867;SDS011;10096;51.112;6.776;2023-04-24T12:58:47;4.13;;;3.28;;
19867;SDS011;10096;51.112;6.776;2023-04-24T13:01:14;4.60;;;2.88;;
19867;SDS011;10096;51.112;6.776;2023-04-24T13:03:42;7.18;;;3.05;;
19867;SDS011;10096;51.112;6.776;2023-04-24T13:06:12;5.03;;;3.47;;
19867;SDS011;10096;51.112;6.776;2023-04-24T13:08:39;4.55;;;3.40;;
19867;SDS011;10096;51.112;6.776;2023-04-24T13:11:06;5.03;;;3.78;;
19867;SDS011;10096;51.112;6.776;2023-04-24T13:13:33;6.38;;;3.30;;
19867;SDS011;10096;51.112;6.776;2023-04-24T13:16:00;4.65;;;3.47;;
19867;SDS011;10096;51.112;6.776;2023-04-24T13:18:28;5.72;;;3.28;;
19867;SDS011;10096;51.112;6.776;2023-04-24T13:20:56;4.60;;;2.90;;
19867;SDS011;10096;51.112;6.776;2023-04-24T13:23:23;4.88;;;3.40;;
19867;SDS011;10096;51.112;6.776;2023-04-24T13:25:51;5.53;;;3.90;;
19867;SDS011;10096;51.112;6.776;2023-04-24T13:28:20;5.88;;;3.17;;
19867;SDS011;10096;51.112;6.776;2023-04-24T13:30:47;5.45;;;4.20;;
19867;SDS011;10096;51.112;6.776;2023-04-24T13:33:14;7.18;;;4.05;;
19867;SDS011;10096;51.112;6.776;2023-04-24T13:35:41;6.82;;;3.55;;
19867;SDS011;10096;51.112;6.776;2023-04-24T13:38:16;6.55;;;3.78;;
19867;SDS011;10096;51.112;6.776;2023-04-24T13:40:46;8.90;;;7.10;;
19867;SDS011;10096;51.112;6.776;2023-04-24T13:43:13;6.65;;;3.45;;
19867;SDS011;10096;51.112;6.776;2023-04-24T13:45:40;3.78;;;3.05;;
19867;SDS011;10096;51.112;6.776;2023-04-24T13:48:08;6.63;;;3.80;;
19867;SDS011;10096;51.112;6.776;2023-04-24T13:50:35;4.45;;;4.05;;
19867;SDS011;10096;51.112;6.776;2023-04-24T13:53:02;7.28;;;3.67;;
19867;SDS011;10096;51.112;6.776;2023-04-24T13:55:30;6.88;;;4.07;;
19867;SDS011;10096;51.112;6.776;2023-04-24T13:57:57;4.97;;;3.38;;
19867;SDS011;10096;51.112;6.776;2023-04-24T14:00:25;4.00;;;3.08;;
19867;SDS011;10096;51.112;6.776;2023-04-24T14:02:52;4.22;;;3.70;;
19867;SDS011;10096;51.112;6.776;2023-04-24T14:05:19;6.43;;;3.88;;
19867;SDS011;10096;51.112;6.776;2023-04-24T14:07:47;8.35;;;5.85;;
19867;SDS011;10096;51.112;6.776;2023-04-24T14:10:15;4.25;;;3.45;;
19867;SDS011;10096;51.112;6.776;2023-04-24T14:12:58;5.50;;;3.30;;
19867;SDS011;10096;51.112;6.776;2023-04-24T14:15:25;5.78;;;3.42;;
19867;SDS011;10096;51.112;6.776;2023-04-24T14:17:55;5.15;;;3.15;;
19867;SDS011;10096;51.112;6.776;2023-04-24T14:20:23;5.85;;;3.15;;
19867;SDS011;10096;51.112;6.776;2023-04-24T14:22:50;6.10;;;3.35;;
19867;SDS011;10096;51.112;6.776;2023-04-24T14:25:19;4.97;;;3.30;;
19867;SDS011;10096;51.112;6.776;2023-04-24T14:27:47;3.85;;;2.63;;
19867;SDS011;10096;51.112;6.776;2023-04-24T14:30:16;4.25;;;3.30;;
19867;SDS011;10096;51.112;6.776;2023-04-24T14:32:43;3.80;;;2.92;;
19867;SDS011;10096;51.112;6.776;2023-04-24T14:35:11;6.82;;;3.30;;
19867;SDS011;10096;51.112;6.776;2023-04-24T14:37:38;5.28;;;4.00;;
19867;SDS011;10096;51.112;6.776;2023-04-24T14:40:08;5.25;;;3.58;;
19867;SDS011;10096;51.112;6.776;2023-04-24T14:42:36;5.78;;;3.30;;
19867;SDS011;10096;51.112;6.776;2023-04-24T14:45:03;4.57;;;2.95;;
19867;SDS011;10096;51.112;6.776;2023-04-24T14:47:33;4.90;;;3.22;;
19867;SDS011;10096;51.112;6.776;2023-04-24T14:50:00;4.63;;;3.00;;
19867;SDS011;10096;51.112;6.776;2023-04-24T14:52:27;3.63;;;2.65;;
19867;SDS011;10096;51.112;6.776;2023-04-24T14:54:53;4.82;;;3.05;;